createdAt,value
2022-09-07T00:04:45.483Z,58.15
2022-09-07T00:10:08.160Z,57.77
2022-09-07T00:15:30.217Z,58.95
2022-09-07T00:21:04.745Z,60.12
2022-09-07T00:26:29.461Z,59.83
2022-09-07T00:31:51.544Z,59.74
2022-09-07T00:37:13.569Z,60.65
2022-09-07T00:42:35.557Z,60.86
2022-09-07T00:48:07.181Z,60.73
2022-09-07T00:53:35.641Z,61.01
2022-09-07T00:58:57.895Z,61.95
2022-09-07T01:04:21.553Z,61.41
2022-09-07T01:09:44.391Z,62.36
2022-09-07T01:15:06.977Z,62.19
2022-09-07T01:20:55.323Z,62.49
2022-09-07T01:26:35.915Z,62.85
2022-09-07T01:32:10.056Z,62.92
2022-09-07T01:37:56.856Z,63.59
2022-09-07T01:43:34.271Z,64.44
2022-09-07T01:49:04.629Z,64.31
2022-09-07T01:54:29.330Z,64.78
2022-09-07T02:00:18.602Z,65.75
2022-09-07T02:05:50.937Z,66.06
2022-09-07T02:11:20.248Z,66.89
2022-09-07T02:16:55.349Z,67.00
2022-09-07T02:22:20.565Z,66.88
2022-09-07T02:27:49.870Z,66.98
2022-09-07T02:33:12.037Z,66.94
2022-09-07T02:38:35.474Z,67.61
2022-09-07T02:43:58.177Z,67.84
2022-09-07T02:49:32.167Z,67.77
2022-09-07T02:55:14.667Z,68.44
2022-09-07T03:01:00.469Z,68.35
2022-09-07T03:06:36.939Z,70.17
2022-09-07T03:12:03.070Z,69.83
2022-09-07T03:17:24.952Z,70.14
2022-09-07T03:22:48.335Z,70.51
2022-09-07T03:28:10.487Z,70.66
2022-09-07T03:33:32.312Z,70.55
2022-09-07T03:38:55.155Z,70.99
2022-09-07T03:44:17.052Z,71.13
2022-09-07T03:49:38.961Z,71.06
2022-09-07T03:55:00.840Z,71.71
2022-09-07T04:00:22.693Z,71.16
2022-09-07T04:05:44.588Z,72.11
2022-09-07T04:11:08.861Z,71.75
2022-09-07T04:16:30.744Z,71.30
2022-09-07T04:21:52.826Z,71.23
2022-09-07T04:27:14.677Z,67.07
2022-09-07T04:32:36.542Z,53.09
2022-09-07T04:37:58.344Z,42.82
2022-09-07T04:43:20.182Z,37.65
2022-09-07T04:48:42.128Z,34.81
2022-09-07T04:54:04.498Z,31.54
2022-09-07T04:59:26.379Z,29.59
2022-09-07T05:04:48.322Z,28.49
2022-09-07T05:10:10.217Z,30.79
2022-09-07T05:15:32.362Z,34.23
2022-09-07T05:20:54.212Z,37.92
2022-09-07T05:26:16.494Z,37.72
2022-09-07T05:31:38.446Z,36.56
2022-09-07T05:37:01.638Z,36.14
2022-09-07T05:42:23.622Z,36.09
2022-09-07T05:47:48.887Z,34.05
2022-09-07T05:53:10.748Z,34.07
2022-09-07T05:58:33.743Z,32.84
2022-09-07T06:03:55.618Z,31.89
2022-09-07T06:09:17.445Z,31.38
2022-09-07T06:14:39.283Z,30.21
2022-09-07T06:20:01.246Z,28.46
2022-09-07T06:25:23.072Z,29.17
2022-09-07T06:30:44.920Z,26.45
2022-09-07T06:36:11.008Z,25.27
2022-09-07T06:47:14.766Z,22.45
2022-09-07T06:58:19.103Z,21.38
2022-09-07T07:03:42.005Z,19.17
2022-09-07T07:09:05.683Z,17.89
2022-09-07T07:14:29.020Z,18.04
2022-09-07T07:19:52.843Z,17.68
2022-09-07T07:25:14.826Z,17.71
2022-09-07T07:30:36.655Z,16.98
2022-09-07T07:36:17.118Z,16.52
2022-09-07T07:41:56.240Z,17.72
2022-09-07T07:47:21.285Z,17.32
2022-09-07T07:52:50.739Z,17.61
2022-09-07T07:58:25.546Z,18.13
2022-09-07T08:03:47.333Z,17.59
2022-09-07T08:09:09.148Z,17.39
2022-09-07T08:14:30.934Z,17.63
2022-09-07T08:19:52.731Z,18.10
2022-09-07T08:25:14.556Z,18.17
2022-09-07T08:30:39.398Z,17.70
2022-09-07T08:36:03.594Z,17.55
2022-09-07T08:41:34.167Z,17.18
2022-09-07T08:46:58.259Z,17.78
2022-09-07T08:52:25.463Z,18.04
2022-09-07T08:57:55.424Z,18.75
2022-09-07T09:06:11.624Z,18.24
2022-09-07T09:09:15.974Z,18.28
2022-09-07T09:14:37.680Z,18.54
2022-09-07T09:20:31.039Z,18.54
2022-09-07T09:25:55.535Z,18.42
2022-09-07T09:31:23.519Z,17.86
2022-09-07T09:36:53.773Z,18.94
2022-09-07T09:42:22.294Z,19.14
2022-09-07T09:47:49.685Z,20.28
2022-09-07T09:53:24.964Z,20.47
2022-09-07T10:04:33.893Z,21.04
2022-09-07T10:09:56.974Z,23.99
2022-09-07T10:15:30.553Z,23.75
2022-09-07T10:20:52.404Z,24.88
2022-09-07T10:26:27.428Z,26.06
2022-09-07T10:31:55.339Z,25.21
2022-09-07T10:37:48.177Z,26.09
2022-09-07T10:43:22.296Z,25.66
2022-09-07T10:49:04.322Z,26.24
2022-09-07T10:54:36.860Z,25.78
2022-09-07T11:00:09.899Z,25.70
2022-09-07T11:05:50.613Z,26.27
2022-09-07T11:12:00.693Z,26.88
2022-09-07T11:17:40.914Z,25.96
2022-09-07T11:23:14.207Z,26.49
2022-09-07T11:34:46.232Z,26.17
2022-09-07T11:40:26.762Z,26.34
2022-09-07T11:45:55.374Z,25.34
2022-09-07T11:51:26.709Z,26.12
2022-09-07T11:56:57.767Z,25.59
2022-09-07T12:03:00.766Z,26.22
2022-09-07T12:09:02.574Z,25.61
2022-09-07T12:14:43.199Z,25.16
2022-09-07T12:20:11.819Z,25.28
2022-09-07T12:25:34.829Z,25.56
2022-09-07T12:31:00.075Z,25.63
2022-09-07T12:36:27.953Z,26.09
2022-09-07T12:47:58.763Z,25.64
2022-09-07T12:53:57.859Z,25.48
2022-09-07T12:59:29.440Z,25.19
2022-09-07T13:05:13.045Z,24.46
2022-09-07T13:10:44.631Z,24.73
2022-09-07T13:16:06.407Z,24.60
2022-09-07T13:21:32.202Z,24.61
2022-09-07T13:27:24.346Z,24.71
2022-09-07T13:38:30.811Z,25.26
2022-09-07T13:43:58.523Z,24.99
2022-09-07T13:49:32.403Z,24.93
2022-09-07T13:55:21.599Z,25.35
2022-09-07T14:01:01.239Z,25.02
2022-09-07T14:06:23.029Z,25.09
2022-09-07T14:11:50.983Z,25.17
2022-09-07T14:17:16.110Z,25.45
2022-09-07T14:22:39.838Z,25.22
2022-09-07T14:28:01.785Z,25.67
2022-09-07T14:33:23.819Z,25.08
2022-09-07T14:44:40.903Z,24.87
2022-09-07T14:50:03.725Z,25.04
2022-09-07T14:55:35.410Z,24.51
2022-09-07T15:07:04.034Z,24.66
2022-09-07T15:12:38.226Z,24.59
2022-09-07T15:18:08.482Z,24.31
2022-09-07T15:23:30.436Z,24.87
2022-09-07T15:34:34.697Z,24.65
2022-09-07T15:39:56.655Z,23.91
2022-09-07T15:45:18.496Z,25.17
2022-09-07T15:50:42.054Z,25.70
2022-09-07T15:56:03.929Z,25.12
2022-09-07T16:07:07.479Z,25.68
2022-09-07T16:18:16.811Z,25.70
2022-09-07T16:23:44.772Z,26.29
2022-09-07T16:29:06.562Z,26.90
2022-09-07T16:34:28.868Z,26.85
2022-09-07T16:39:50.810Z,27.00
2022-09-07T16:51:01.073Z,27.53
2022-09-07T16:56:26.847Z,27.87
2022-09-07T17:01:48.868Z,28.41
2022-09-07T17:07:12.398Z,28.60
2022-09-07T17:12:34.405Z,28.93
2022-09-07T17:17:56.205Z,29.45
2022-09-07T17:23:18.008Z,29.70
2022-09-07T17:28:43.974Z,29.98
2022-09-07T17:34:05.940Z,29.99
2022-09-07T17:39:28.052Z,31.23
2022-09-07T17:44:54.061Z,31.50
2022-09-07T17:50:15.892Z,32.06
2022-09-07T17:55:37.735Z,32.92
2022-09-07T18:01:05.310Z,33.12
2022-09-07T18:06:27.308Z,33.30
2022-09-07T18:11:50.035Z,33.79
2022-09-07T18:17:12.090Z,34.02
2022-09-07T18:22:34.701Z,34.68
2022-09-07T18:33:39.560Z,35.68
2022-09-07T18:39:02.377Z,36.08
2022-09-07T18:50:07.136Z,36.40
2022-09-07T18:55:28.964Z,36.96
2022-09-07T19:00:50.996Z,37.12
2022-09-07T19:06:14.109Z,37.46
2022-09-07T19:11:35.945Z,37.65
2022-09-07T19:16:57.865Z,38.05
2022-09-07T19:22:19.741Z,38.50
2022-09-07T19:27:41.528Z,38.56
2022-09-07T19:33:04.676Z,38.42
2022-09-07T19:38:26.688Z,38.54
2022-09-07T19:43:49.129Z,38.75
2022-09-07T19:49:11.427Z,38.70
2022-09-07T19:54:33.326Z,38.89
2022-09-07T19:59:55.190Z,38.53
2022-09-07T20:05:18.182Z,38.72
2022-09-07T20:10:40.092Z,39.13
2022-09-07T20:16:07.479Z,39.14
2022-09-07T20:21:29.427Z,39.34
2022-09-07T20:26:51.408Z,39.24
2022-09-07T20:32:13.225Z,39.67
2022-09-07T20:37:35.083Z,39.81
2022-09-07T20:42:56.874Z,40.57
2022-09-07T20:48:18.659Z,40.66
2022-09-07T20:53:41.153Z,40.75
2022-09-07T20:59:03.987Z,40.76
2022-09-07T21:04:25.847Z,41.01
2022-09-07T21:09:47.973Z,40.61
2022-09-07T21:15:10.106Z,40.93
2022-09-07T21:20:32.374Z,41.18
2022-09-07T21:25:54.290Z,41.05
2022-09-07T21:31:16.158Z,41.42
2022-09-07T21:36:38.027Z,41.53
2022-09-07T21:41:59.781Z,41.37
2022-09-07T21:47:21.591Z,41.58
2022-09-07T21:52:43.342Z,41.79
2022-09-07T21:58:05.543Z,42.10
2022-09-07T22:03:27.386Z,42.10
2022-09-07T22:08:49.847Z,42.60
2022-09-07T22:14:13.100Z,43.35
2022-09-07T22:19:34.873Z,43.48
2022-09-07T22:24:56.685Z,43.71
2022-09-07T22:30:18.529Z,44.62
2022-09-07T22:35:40.287Z,45.17
2022-09-07T22:41:12.957Z,45.68
2022-09-07T22:46:37.312Z,45.88
2022-09-07T22:51:59.147Z,45.40
2022-09-07T22:57:20.920Z,45.31
2022-09-07T23:02:42.824Z,45.27
2022-09-07T23:08:04.776Z,45.13
2022-09-07T23:13:26.650Z,45.22
2022-09-07T23:18:48.784Z,45.28
2022-09-07T23:24:16.774Z,45.27
2022-09-07T23:29:38.563Z,45.83
2022-09-07T23:35:00.303Z,46.87
2022-09-07T23:40:22.195Z,47.25
2022-09-07T23:45:43.955Z,47.30
2022-09-07T23:51:06.124Z,47.98
2022-09-07T23:56:27.956Z,48.34
